Terminal Aerodrome Forecast
Issued by NWS Sterling, VA

Home | Current Version | Previous Version | Text Only | Print | Product List | Glossary On
Versions: 1 2 3 4 5 6 7 8 9 10 11 12 13 14 15 16 17 18 19 20 21 22 23
000
FTUS41 KLWX 282336
TAFCHO
TAF
KCHO 282336Z 2900/2924 VRB03KT 3SM -TSRA BKN050CB
     FM290200 VRB03KT P6SM VCTS BKN050CB
     FM290300 VRB03KT 3SM BR VCTS BKN050CB
     FM290600 01004KT 1SM BR BKN050
     FM291200 15004KT 3SM BR BKN050
     FM291300 16004KT P6SM BKN050=

USA.gov is the U.S. government's official web portal to all federal, state and local government web resources and services.